Time;durP1;ratioP1;P1;durP2;ratioP2;P2;SDS_P1;SDS_P2;PMS_P1;PMS_P2;Temp;Humidity;BMP_temperature;BMP_pressure;BME280_temperature;BME280_humidity;BME280_pressure;Samples;Min_cycle;Max_cycle;Signal;HPM_P1;HPM_P2
2021/12/25 00:01:20;;;;;;;10.47;9.47;;;9.80;99.90;;;;;;5015271;28;20506;-90
2021/12/25 00:03:48;;;;;;;12.47;11.27;;;9.80;99.90;;;;;;5015044;28;20487;-90
2021/12/25 00:06:15;;;;;;;13.43;12.03;;;9.80;99.90;;;;;;5015172;28;21124;-90
2021/12/25 00:08:41;;;;;;;11.73;10.63;;;9.70;99.90;;;;;;5015286;28;20938;-90
2021/12/25 00:11:10;;;;;;;11.57;10.40;;;9.80;99.90;;;;;;5015479;28;20974;-90
2021/12/25 00:13:38;;;;;;;16.07;11.70;;;9.80;99.90;;;;;;5020077;28;20476;-90
2021/12/25 00:16:05;;;;;;;12.13;10.93;;;9.60;99.90;;;;;;5014107;28;20485;-90
2021/12/25 00:18:32;;;;;;;14.03;11.90;;;9.70;99.90;;;;;;5015951;28;20461;-89
2021/12/25 00:20:58;;;;;;;12.63;11.43;;;9.70;99.90;;;;;;5015076;28;20878;-89
2021/12/25 00:23:25;;;;;;;11.53;10.40;;;9.80;99.90;;;;;;5014560;28;20472;-89
2021/12/25 00:25:57;;;;;;;12.40;11.20;;;9.80;99.90;;;;;;5014454;28;20815;-89
2021/12/25 00:28:50;;;;;;;12.10;10.90;;;9.80;99.90;;;;;;5018184;28;20461;-90
2021/12/25 00:34:05;;;;;;;11.17;10.17;;;9.80;99.90;;;;;;5029553;28;20946;-90
2021/12/25 00:36:31;;;;;;;11.93;10.73;;;9.80;99.90;;;;;;5020310;28;20454;-91
2021/12/25 00:38:58;;;;;;;12.43;10.10;;;9.80;99.90;;;;;;5019331;28;20477;-91
2021/12/25 00:41:25;;;;;;;11.37;10.20;;;9.80;99.90;;;;;;5026247;28;20446;-90
2021/12/25 00:43:53;;;;;;;12.73;11.57;;;9.80;99.90;;;;;;5020705;28;20474;-91
2021/12/25 00:46:20;;;;;;;12.87;9.23;;;9.90;99.90;;;;;;5015571;28;20475;-91
2021/12/25 00:48:47;;;;;;;13.83;11.67;;;9.90;99.90;;;;;;5020583;28;20552;-91
2021/12/25 00:51:14;;;;;;;18.37;11.03;;;9.90;99.90;;;;;;5027469;28;20985;-91
2021/12/25 00:53:42;;;;;;;11.93;9.67;;;9.90;99.90;;;;;;5031786;28;20455;-92
2021/12/25 00:56:09;;;;;;;12.07;10.90;;;9.90;99.90;;;;;;5031386;28;20474;-91
2021/12/25 00:58:36;;;;;;;12.90;10.73;;;9.90;99.90;;;;;;5018940;28;20474;-92
2021/12/25 01:01:04;;;;;;;10.80;9.80;;;10.00;99.90;;;;;;5018711;28;20453;-92
2021/12/25 01:03:31;;;;;;;12.30;11.13;;;10.00;99.90;;;;;;5035448;28;20481;-91
2021/12/25 01:05:58;;;;;;;13.10;11.73;;;10.00;99.90;;;;;;5039014;28;20434;-92
2021/12/25 01:08:24;;;;;;;10.60;9.60;;;9.90;99.90;;;;;;5037074;28;20434;-91
2021/12/25 01:10:52;;;;;;;11.43;10.10;;;9.90;99.90;;;;;;5019553;28;20453;-93
2021/12/25 01:13:24;;;;;;;12.00;9.93;;;9.80;99.90;;;;;;5017672;28;20458;-92
2021/12/25 01:16:02;;;;;;;10.60;9.47;;;9.80;99.90;;;;;;5019531;28;20474;-93
2021/12/25 01:18:59;;;;;;;11.47;10.37;;;9.80;99.90;;;;;;5025552;28;20464;-92
2021/12/25 01:21:44;;;;;;;10.70;9.73;;;9.70;99.90;;;;;;5020543;28;20454;-92
2021/12/25 01:24:33;;;;;;;12.10;10.60;;;9.70;99.90;;;;;;5018704;28;20517;-92
2021/12/25 01:27:20;;;;;;;10.63;9.70;;;9.70;99.90;;;;;;5017261;28;20525;-92
2021/12/25 01:29:52;;;;;;;11.00;10.07;;;9.70;99.90;;;;;;5017437;28;20463;-90
2021/12/25 01:35:31;;;;;;;11.90;10.90;;;9.70;99.90;;;;;;5007650;28;20484;-92
2021/12/25 01:38:19;;;;;;;11.53;10.33;;;9.80;99.90;;;;;;5021708;28;20966;-91
2021/12/25 01:40:55;;;;;;;11.53;10.40;;;9.70;99.90;;;;;;5036972;28;20453;-92
2021/12/25 01:48:51;;;;;;;13.63;12.33;;;9.70;99.90;;;;;;5014359;28;20508;-91
2021/12/25 01:51:19;;;;;;;14.37;12.87;;;9.60;99.90;;;;;;5017005;28;20482;-91
2021/12/25 01:53:46;;;;;;;13.43;12.00;;;9.60;99.90;;;;;;5019646;28;20821;-91
2021/12/25 01:56:13;;;;;;;13.10;11.80;;;9.60;99.90;;;;;;5014120;28;20568;-91
2021/12/25 01:58:40;;;;;;;12.23;11.03;;;9.60;99.90;;;;;;5014146;28;20454;-91
2021/12/25 02:01:08;;;;;;;14.23;12.70;;;9.60;99.90;;;;;;5016310;28;20453;-90
2021/12/25 02:03:36;;;;;;;14.00;12.60;;;9.60;99.90;;;;;;5019355;28;20478;-91
2021/12/25 02:06:05;;;;;;;15.47;13.97;;;9.60;99.90;;;;;;5021654;28;20504;-91
2021/12/25 02:08:34;;;;;;;12.53;11.23;;;9.60;99.90;;;;;;5032081;28;20461;-90
2021/12/25 02:11:02;;;;;;;13.03;11.70;;;9.50;99.90;;;;;;5038505;28;20542;-92
2021/12/25 02:13:30;;;;;;;15.20;11.83;;;9.40;99.90;;;;;;5037658;28;20477;-92
2021/12/25 02:15:58;;;;;;;12.90;11.60;;;9.30;99.90;;;;;;5024494;28;20477;-91
2021/12/25 02:18:29;;;;;;;13.93;12.53;;;9.20;99.90;;;;;;5012693;28;20446;-91
2021/12/25 02:21:06;;;;;;;14.40;11.80;;;9.20;99.90;;;;;;5012999;28;20529;-91
2021/12/25 02:23:33;;;;;;;17.53;11.23;;;9.20;99.90;;;;;;5018001;28;20454;-91
2021/12/25 02:26:01;;;;;;;13.10;11.80;;;9.20;99.90;;;;;;5021151;28;20446;-91
2021/12/25 02:28:28;;;;;;;13.30;11.93;;;9.20;99.90;;;;;;5014343;28;20442;-91
2021/12/25 02:30:59;;;;;;;12.90;11.53;;;9.20;99.90;;;;;;5015372;28;20454;-91
2021/12/25 02:33:26;;;;;;;13.10;11.10;;;9.10;99.90;;;;;;5016653;28;20990;-91
2021/12/25 02:35:54;;;;;;;14.00;12.57;;;9.20;99.90;;;;;;5018960;28;20482;-92
2021/12/25 02:38:22;;;;;;;13.97;12.27;;;9.20;99.90;;;;;;5019177;28;20493;-91
2021/12/25 02:40:50;;;;;;;12.53;11.27;;;9.20;99.90;;;;;;5019937;28;20473;-91
2021/12/25 02:43:17;;;;;;;12.53;11.23;;;9.20;99.90;;;;;;5023694;28;20481;-91
2021/12/25 02:45:44;;;;;;;14.90;12.70;;;9.30;99.90;;;;;;5012267;28;20453;-91
2021/12/25 02:48:15;;;;;;;15.37;13.33;;;9.30;99.90;;;;;;5012186;28;20462;-91
2021/12/25 02:50:42;;;;;;;14.97;13.20;;;9.30;99.90;;;;;;5013234;28;20541;-91
2021/12/25 02:53:10;;;;;;;20.27;15.20;;;9.20;99.90;;;;;;5032337;28;20453;-91
2021/12/25 02:55:42;;;;;;;14.63;13.13;;;9.30;99.90;;;;;;5037631;28;20458;-90
2021/12/25 02:58:09;;;;;;;16.00;12.90;;;9.20;99.90;;;;;;5035491;28;20465;-90
2021/12/25 03:00:42;;;;;;;15.93;13.20;;;9.10;99.90;;;;;;5023649;28;20450;-91
2021/12/25 03:03:09;;;;;;;15.87;14.07;;;9.00;99.90;;;;;;5015480;28;20438;-91
2021/12/25 03:05:37;;;;;;;14.30;12.80;;;9.00;99.90;;;;;;5013657;28;20450;-90
2021/12/25 03:08:06;;;;;;;13.63;12.27;;;9.00;99.90;;;;;;5016970;28;20449;-91
2021/12/25 03:10:35;;;;;;;13.23;11.97;;;9.00;99.90;;;;;;5016909;28;20439;-90
2021/12/25 03:13:18;;;;;;;13.13;11.80;;;9.10;99.90;;;;;;5016340;28;20469;-91
2021/12/25 03:15:47;;;;;;;16.07;12.60;;;9.10;99.90;;;;;;5004255;28;20565;-91
2021/12/25 03:18:14;;;;;;;14.30;11.40;;;9.00;99.90;;;;;;5014815;28;20973;-90
2021/12/25 03:20:44;;;;;;;10.97;9.87;;;9.00;99.90;;;;;;5030171;28;20477;-90
2021/12/25 03:23:12;;;;;;;17.07;11.13;;;9.00;99.90;;;;;;5027327;28;20505;-90
2021/12/25 03:25:40;;;;;;;16.47;12.40;;;8.90;99.90;;;;;;5015141;28;20474;-91
2021/12/25 03:28:08;;;;;;;14.93;11.57;;;8.90;99.90;;;;;;5014674;28;20459;-91
2021/12/25 03:30:38;;;;;;;11.87;10.67;;;8.90;99.90;;;;;;5028155;28;20482;-91
2021/12/25 03:33:05;;;;;;;11.30;10.20;;;8.90;99.90;;;;;;5030190;28;20433;-90
2021/12/25 03:35:34;;;;;;;15.27;12.27;;;9.00;99.90;;;;;;5036609;28;20474;-91
2021/12/25 03:38:00;;;;;;;14.43;11.40;;;9.00;99.90;;;;;;5015403;28;20537;-91
2021/12/25 03:40:27;;;;;;;12.60;11.23;;;9.00;99.90;;;;;;5015113;28;20454;-92
2021/12/25 03:42:54;;;;;;;17.37;12.20;;;9.00;99.90;;;;;;5014340;28;20457;-91
2021/12/25 03:45:22;;;;;;;12.53;11.23;;;8.90;99.90;;;;;;5014617;28;20497;-91
2021/12/25 03:47:51;;;;;;;13.23;11.67;;;8.90;99.90;;;;;;5014989;28;20454;-91
2021/12/25 03:53:11;;;;;;;13.83;12.40;;;8.90;99.90;;;;;;5015479;28;20509;-90
2021/12/25 03:58:27;;;;;;;15.07;11.83;;;9.00;99.90;;;;;;5013771;28;20445;-90
2021/12/25 04:01:00;;;;;;;13.60;11.53;;;9.00;99.90;;;;;;5014595;28;20462;-91
2021/12/25 04:03:28;;;;;;;13.83;12.33;;;8.90;99.90;;;;;;5014022;28;20478;-91
2021/12/25 04:05:56;;;;;;;12.30;11.00;;;8.90;99.90;;;;;;5014195;28;20495;-91
2021/12/25 04:08:30;;;;;;;13.03;11.10;;;8.90;99.90;;;;;;5014094;28;20470;-91
2021/12/25 04:11:03;;;;;;;15.67;11.70;;;9.00;99.90;;;;;;5014248;28;20512;-91
2021/12/25 04:13:30;;;;;;;14.43;11.87;;;9.00;99.90;;;;;;5013931;28;20507;-91
2021/12/25 04:15:58;;;;;;;12.77;11.40;;;9.00;99.90;;;;;;5013933;28;20478;-91
2021/12/25 04:18:25;;;;;;;15.70;12.23;;;9.00;99.90;;;;;;5012550;28;20505;-91
2021/12/25 04:20:52;;;;;;;13.70;12.27;;;9.00;99.90;;;;;;5014107;28;20459;-91
2021/12/25 04:23:24;;;;;;;11.90;10.67;;;9.00;99.90;;;;;;5013484;28;20465;-90
2021/12/25 04:25:53;;;;;;;11.43;10.33;;;9.00;99.90;;;;;;5013810;28;20501;-91
2021/12/25 04:28:32;;;;;;;13.10;10.30;;;9.00;99.90;;;;;;5013586;28;21010;-91
2021/12/25 04:31:20;;;;;;;14.27;11.60;;;9.00;99.90;;;;;;5013894;28;20878;-91
2021/12/25 05:01:48;;;;;;;8.50;7.20;;;9.10;99.90;;;;;;5014636;28;20480;-92
2021/12/25 05:04:21;;;;;;;7.73;6.63;;;9.10;99.90;;;;;;5013986;28;20478;-91
2021/12/25 05:06:48;;;;;;;9.17;7.23;;;9.10;99.90;;;;;;5012711;28;20457;-92
2021/12/25 05:09:16;;;;;;;7.67;6.90;;;9.00;99.90;;;;;;5012671;28;20504;-91
2021/12/25 05:11:43;;;;;;;7.93;7.13;;;9.00;99.90;;;;;;5013580;28;20457;-91
2021/12/25 05:14:10;;;;;;;10.33;7.13;;;9.00;99.90;;;;;;5031699;28;20450;-91
2021/12/25 05:16:37;;;;;;;7.47;6.50;;;9.00;99.90;;;;;;5027528;28;20488;-91
2021/12/25 05:19:04;;;;;;;15.10;7.17;;;9.00;99.90;;;;;;5022337;28;20438;-91
2021/12/25 05:21:32;;;;;;;8.77;7.87;;;9.00;99.90;;;;;;5020368;28;20926;-91
2021/12/25 05:24:00;;;;;;;9.30;7.97;;;9.00;99.90;;;;;;5013253;28;20476;-91
2021/12/25 05:26:27;;;;;;;9.17;8.33;;;9.00;99.90;;;;;;5012816;28;20454;-91
2021/12/25 05:28:59;;;;;;;9.17;7.30;;;8.90;99.90;;;;;;5025572;28;20442;-91
2021/12/25 05:31:27;;;;;;;10.40;7.03;;;8.90;99.90;;;;;;5036449;28;20458;-91
2021/12/25 05:33:54;;;;;;;8.73;6.87;;;8.90;99.90;;;;;;5014238;28;20470;-91
2021/12/25 05:36:21;;;;;;;9.10;8.17;;;8.90;99.90;;;;;;5012709;28;20478;-91
2021/12/25 05:38:49;;;;;;;8.83;7.10;;;8.90;99.90;;;;;;5012954;28;20458;-91
2021/12/25 05:41:15;;;;;;;10.13;8.83;;;8.90;99.90;;;;;;5021446;28;20450;-91
2021/12/25 05:43:42;;;;;;;10.63;8.50;;;8.90;99.90;;;;;;5017922;28;20477;-91
2021/12/25 05:46:09;;;;;;;7.97;7.17;;;8.90;99.90;;;;;;5012545;28;20500;-91
2021/12/25 05:48:36;;;;;;;8.30;7.40;;;8.90;99.90;;;;;;5012422;28;20458;-90
2021/12/25 05:51:03;;;;;;;9.30;7.67;;;8.90;99.90;;;;;;5012776;28;20472;-90
2021/12/25 05:53:30;;;;;;;9.30;7.57;;;8.90;99.90;;;;;;5012919;28;20481;-92
2021/12/25 05:55:59;;;;;;;9.60;7.77;;;8.90;99.90;;;;;;5012336;28;21002;-91
2021/12/25 05:58:26;;;;;;;8.53;7.67;;;8.90;99.90;;;;;;5012479;28;20446;-91
2021/12/25 06:00:53;;;;;;;9.73;8.83;;;9.00;99.90;;;;;;5012736;28;20461;-92
2021/12/25 06:03:19;;;;;;;7.67;6.63;;;9.00;99.90;;;;;;5015189;28;20783;-91
2021/12/25 06:05:47;;;;;;;8.07;7.37;;;9.00;99.90;;;;;;5012825;28;20454;-91
2021/12/25 06:08:14;;;;;;;8.40;7.57;;;9.00;99.90;;;;;;5014760;28;20454;-92
2021/12/25 06:10:41;;;;;;;10.00;9.00;;;9.00;99.90;;;;;;5016700;28;20446;-91
2021/12/25 06:13:16;;;;;;;8.20;7.40;;;9.00;99.90;;;;;;5016247;28;20647;-91
2021/12/25 06:15:43;;;;;;;6.57;5.90;;;9.00;99.90;;;;;;5014589;28;20484;-92
2021/12/25 06:18:10;;;;;;;8.07;7.27;;;9.00;99.90;;;;;;5016249;28;20450;-91
2021/12/25 06:20:37;;;;;;;8.17;7.37;;;9.00;99.90;;;;;;5014227;28;20450;-91
2021/12/25 06:23:04;;;;;;;7.67;5.80;;;9.00;99.90;;;;;;5013916;28;20447;-92
2021/12/25 06:25:31;;;;;;;10.47;6.60;;;9.10;99.90;;;;;;5029733;28;20450;-92
2021/12/25 06:27:59;;;;;;;7.50;6.60;;;9.00;99.90;;;;;;5037042;28;20454;-92
2021/12/25 06:30:27;;;;;;;7.87;7.17;;;9.00;99.90;;;;;;5036748;28;20438;-92
2021/12/25 06:32:54;;;;;;;8.53;7.63;;;9.00;99.90;;;;;;5014670;28;20934;-92
2021/12/25 06:35:21;;;;;;;14.53;7.80;;;9.00;99.90;;;;;;5014302;28;20561;-91
2021/12/25 06:37:48;;;;;;;9.60;8.60;;;9.00;99.90;;;;;;5013690;28;20481;-91
2021/12/25 06:40:18;;;;;;;10.47;8.60;;;9.00;99.90;;;;;;5020895;28;20454;-90
2021/12/25 06:42:46;;;;;;;10.10;8.80;;;9.00;99.90;;;;;;5041147;28;20457;-90
2021/12/25 06:45:13;;;;;;;10.47;9.17;;;9.10;99.90;;;;;;5033191;28;20470;-90
2021/12/25 06:47:41;;;;;;;8.77;7.60;;;9.10;99.90;;;;;;5021740;28;20460;-90
2021/12/25 06:50:11;;;;;;;8.53;7.63;;;9.00;99.90;;;;;;5020426;28;21256;-86
2021/12/25 06:52:38;;;;;;;9.13;8.33;;;9.00;99.90;;;;;;5017606;28;21021;-87
2021/12/25 06:55:06;;;;;;;13.90;9.87;;;9.00;99.90;;;;;;5018382;28;20462;-87
2021/12/25 06:57:33;;;;;;;10.07;9.07;;;8.90;99.90;;;;;;5016269;28;20484;-86
2021/12/25 06:59:59;;;;;;;10.03;9.03;;;9.00;99.90;;;;;;5016608;28;20827;-86
2021/12/25 07:02:26;;;;;;;10.87;9.70;;;9.00;99.90;;;;;;5015963;28;20450;-87
2021/12/25 07:04:54;;;;;;;10.70;9.60;;;9.00;99.90;;;;;;5016023;28;20553;-87
2021/12/25 07:07:23;;;;;;;11.87;10.63;;;9.10;99.90;;;;;;5015637;28;20469;-87
2021/12/25 07:09:50;;;;;;;9.73;8.70;;;9.10;99.90;;;;;;5015920;28;20458;-87
2021/12/25 07:12:19;;;;;;;10.97;9.47;;;9.10;99.90;;;;;;5015615;28;20476;-87
2021/12/25 07:14:45;;;;;;;11.20;10.03;;;9.00;99.90;;;;;;5016922;28;20913;-89
2021/12/25 07:17:12;;;;;;;13.30;11.13;;;9.00;99.90;;;;;;5015229;28;20486;-88
2021/12/25 07:19:39;;;;;;;19.20;11.00;;;9.10;99.90;;;;;;5015758;28;20457;-89
2021/12/25 07:22:07;;;;;;;14.27;10.27;;;9.10;99.90;;;;;;5036977;28;20426;-88
2021/12/25 07:24:34;;;;;;;13.70;11.57;;;9.10;99.90;;;;;;5028910;28;20469;-89
2021/12/25 07:27:05;;;;;;;13.47;11.67;;;9.20;99.90;;;;;;5017536;28;20446;-88
2021/12/25 07:29:32;;;;;;;13.60;11.10;;;9.20;99.90;;;;;;5033038;28;20430;-87
2021/12/25 07:31:58;;;;;;;11.57;10.33;;;9.30;99.90;;;;;;5029366;28;20491;-88
2021/12/25 07:34:25;;;;;;;13.57;11.13;;;9.30;99.90;;;;;;5000292;28;20463;-88
2021/12/25 07:36:52;;;;;;;11.83;10.63;;;9.30;99.90;;;;;;4999799;28;20490;-88
2021/12/25 07:39:20;;;;;;;11.50;10.30;;;9.30;99.90;;;;;;5017126;28;20458;-89
2021/12/25 07:41:47;;;;;;;12.33;10.40;;;9.20;99.90;;;;;;5016238;28;20478;-89
2021/12/25 07:44:14;;;;;;;13.23;10.97;;;9.10;99.90;;;;;;5016105;28;20916;-89
2021/12/25 07:46:42;;;;;;;15.57;12.33;;;9.20;99.90;;;;;;5015982;28;20966;-89
2021/12/25 07:49:15;;;;;;;14.37;12.40;;;9.20;99.90;;;;;;5017250;28;20469;-88
2021/12/25 07:51:42;;;;;;;14.13;11.77;;;9.30;99.90;;;;;;5018532;28;20450;-89
2021/12/25 07:54:18;;;;;;;12.80;11.60;;;9.30;99.90;;;;;;5019417;28;20813;-89
2021/12/25 07:56:47;;;;;;;12.77;10.63;;;9.30;99.90;;;;;;5015737;28;20564;-88
2021/12/25 07:59:14;;;;;;;11.03;9.93;;;9.30;99.90;;;;;;5016455;28;20838;-88
2021/12/25 08:01:41;;;;;;;11.50;9.93;;;9.30;99.90;;;;;;5016974;28;20458;-87
2021/12/25 08:04:10;;;;;;;16.67;10.40;;;9.30;99.90;;;;;;5016819;28;20580;-88
2021/12/25 08:06:39;;;;;;;11.57;8.40;;;9.30;99.90;;;;;;5020204;28;20450;-87
2021/12/25 08:09:06;;;;;;;13.27;9.60;;;9.40;99.90;;;;;;5015199;28;20461;-87
2021/12/25 08:11:33;;;;;;;10.07;8.80;;;9.40;99.90;;;;;;5019529;28;20460;-89
2021/12/25 08:14:01;;;;;;;10.40;8.03;;;9.40;99.90;;;;;;5017770;28;20470;-89
2021/12/25 08:16:27;;;;;;;11.50;10.30;;;9.40;99.90;;;;;;5014780;28;20489;-89
2021/12/25 08:18:54;;;;;;;12.77;10.23;;;9.30;99.90;;;;;;5014969;28;20536;-89
2021/12/25 08:21:21;;;;;;;10.97;9.87;;;9.40;99.90;;;;;;5024155;28;20461;-89
2021/12/25 08:23:49;;;;;;;12.20;10.80;;;9.40;99.90;;;;;;5016085;28;20466;-89
2021/12/25 08:26:16;;;;;;;12.47;10.30;;;9.30;99.90;;;;;;5015602;28;21050;-89
2021/12/25 08:28:43;;;;;;;14.33;10.17;;;9.30;99.90;;;;;;5016507;28;20671;-89
2021/12/25 08:31:11;;;;;;;14.60;9.50;;;9.30;99.90;;;;;;5035022;28;20488;-89
2021/12/25 08:33:38;;;;;;;11.60;10.17;;;9.40;99.90;;;;;;5028250;28;20479;-88
2021/12/25 08:36:05;;;;;;;11.70;10.50;;;9.50;99.90;;;;;;5023036;28;20454;-88
2021/12/25 08:38:32;;;;;;;10.37;8.67;;;9.40;99.90;;;;;;5015957;28;20498;-89
2021/12/25 08:40:58;;;;;;;8.77;7.87;;;9.50;99.90;;;;;;5016812;28;20427;-88
2021/12/25 08:43:25;;;;;;;11.10;8.87;;;9.60;99.90;;;;;;5015394;28;20469;-89
2021/12/25 08:46:03;;;;;;;9.93;7.50;;;9.70;99.90;;;;;;5014831;28;20450;-88
2021/12/25 08:48:31;;;;;;;9.73;8.70;;;9.70;99.90;;;;;;5015481;28;20489;-89
2021/12/25 08:51:00;;;;;;;7.73;7.03;;;9.80;99.90;;;;;;5015987;28;20534;-87
2021/12/25 08:53:28;;;;;;;10.77;7.80;;;9.80;99.90;;;;;;5015969;28;20501;-87
2021/12/25 08:55:57;;;;;;;9.40;8.40;;;9.80;99.90;;;;;;5015791;28;20469;-88
2021/12/25 08:58:25;;;;;;;8.13;7.33;;;9.90;99.90;;;;;;5016011;28;20513;-89
2021/12/25 09:00:56;;;;;;;7.13;6.37;;;9.90;99.90;;;;;;5015935;28;20458;-88
2021/12/25 09:03:25;;;;;;;8.63;6.43;;;10.00;99.90;;;;;;5016884;28;20454;-88
2021/12/25 09:05:59;;;;;;;11.10;6.70;;;10.00;99.90;;;;;;5016099;28;20895;-88
2021/12/25 09:08:26;;;;;;;7.07;5.93;;;10.00;99.90;;;;;;5015835;28;20458;-88
2021/12/25 09:10:54;;;;;;;8.60;7.20;;;10.10;99.90;;;;;;5026959;28;20446;-87
2021/12/25 09:13:23;;;;;;;8.53;6.53;;;10.10;99.90;;;;;;5037538;28;20484;-89
2021/12/25 09:15:51;;;;;;;7.40;6.70;;;10.20;99.90;;;;;;5022010;28;20454;-86
2021/12/25 09:18:17;;;;;;;7.63;6.80;;;10.20;99.90;;;;;;5018969;28;20481;-89
2021/12/25 09:20:44;;;;;;;7.30;6.60;;;10.20;99.90;;;;;;5015819;28;20431;-89
2021/12/25 09:23:12;;;;;;;6.57;5.97;;;10.20;99.90;;;;;;5013609;28;20458;-87
2021/12/25 09:25:39;;;;;;;6.80;6.20;;;10.20;99.90;;;;;;5013937;28;20434;-87
2021/12/25 09:28:06;;;;;;;8.47;7.17;;;10.20;99.90;;;;;;5014064;28;20816;-89
2021/12/25 09:30:33;;;;;;;6.03;5.43;;;10.20;99.90;;;;;;5015168;28;20457;-88
2021/12/25 09:33:00;;;;;;;6.60;5.70;;;10.20;99.90;;;;;;5016062;28;20870;-90
2021/12/25 09:35:31;;;;;;;7.03;6.10;;;10.20;99.90;;;;;;5017270;28;20989;-88
2021/12/25 09:37:58;;;;;;;7.70;6.23;;;10.20;99.90;;;;;;5020183;28;20482;-90
2021/12/25 09:40:26;;;;;;;11.47;7.60;;;10.20;99.90;;;;;;5019761;28;20446;-88
2021/12/25 09:42:54;;;;;;;8.20;7.40;;;10.20;99.90;;;;;;5029237;28;20454;-87
2021/12/25 09:45:22;;;;;;;8.70;6.90;;;10.30;99.90;;;;;;5032995;28;20561;-88
2021/12/25 09:47:49;;;;;;;8.00;7.30;;;10.40;99.90;;;;;;5019245;28;20456;-88
2021/12/25 09:50:16;;;;;;;7.07;6.30;;;10.40;99.90;;;;;;5018463;28;20442;-87
2021/12/25 09:52:44;;;;;;;6.43;5.83;;;10.40;99.90;;;;;;5015542;28;20446;-87
2021/12/25 09:55:11;;;;;;;8.20;6.37;;;10.50;99.90;;;;;;5015049;28;20477;-88
2021/12/25 09:57:40;;;;;;;6.27;5.67;;;10.50;99.90;;;;;;5014516;28;20481;-88
2021/12/25 10:00:16;;;;;;;6.97;6.27;;;10.50;99.90;;;;;;5020443;28;20451;-89
2021/12/25 10:02:46;;;;;;;7.00;6.30;;;10.60;99.90;;;;;;5016663;28;20449;-89
2021/12/25 10:05:13;;;;;;;6.63;6.03;;;10.60;99.90;;;;;;5015769;28;20519;-88
2021/12/25 10:07:41;;;;;;;9.17;5.93;;;10.60;99.90;;;;;;5020549;28;20455;-89
2021/12/25 10:10:13;;;;;;;5.23;4.73;;;10.60;99.90;;;;;;5015776;28;20504;-88
2021/12/25 10:12:44;;;;;;;5.33;4.70;;;10.70;99.90;;;;;;5018568;28;20453;-87
2021/12/25 10:15:13;;;;;;;5.60;4.30;;;10.90;99.90;;;;;;5018279;28;20462;-88
2021/12/25 10:17:46;;;;;;;6.03;5.43;;;10.90;99.90;;;;;;5020640;28;20505;-87
2021/12/25 10:20:18;;;;;;;5.40;4.90;;;11.10;99.90;;;;;;5040231;28;20445;-87
2021/12/25 10:23:01;;;;;;;6.83;4.47;;;11.20;99.90;;;;;;5042246;28;20537;-88
2021/12/25 10:25:32;;;;;;;4.50;4.10;;;11.40;99.90;;;;;;5041823;28;20541;-88
2021/12/25 10:28:06;;;;;;;4.90;4.27;;;11.50;99.90;;;;;;5039448;28;20440;-89
2021/12/25 10:30:43;;;;;;;3.43;2.70;;;11.50;99.90;;;;;;5030213;28;20454;-89
2021/12/25 10:33:23;;;;;;;4.10;3.70;;;11.50;99.90;;;;;;5027057;28;20481;-88
2021/12/25 10:35:50;;;;;;;6.40;3.17;;;11.60;99.90;;;;;;5026477;28;20439;-89
2021/12/25 10:38:17;;;;;;;3.97;3.20;;;11.60;99.90;;;;;;5025501;28;20478;-89
2021/12/25 10:40:44;;;;;;;4.23;3.83;;;11.70;99.90;;;;;;5024567;28;20451;-89
2021/12/25 10:43:23;;;;;;;3.23;3.00;;;11.70;99.90;;;;;;5017483;28;20450;-88
2021/12/25 10:46:00;;;;;;;2.60;2.40;;;11.70;99.90;;;;;;5016655;28;20457;-89
2021/12/25 10:48:28;;;;;;;2.70;2.10;;;11.70;99.90;;;;;;5016724;28;20454;-88
2021/12/25 10:50:55;;;;;;;2.50;2.30;;;11.80;99.90;;;;;;5015738;28;20521;-88
2021/12/25 10:53:24;;;;;;;4.20;2.50;;;11.90;99.90;;;;;;5025780;28;20445;-88
2021/12/25 10:55:52;;;;;;;4.07;3.17;;;11.90;99.90;;;;;;5026542;28;20439;-88
2021/12/25 10:58:22;;;;;;;2.10;1.83;;;12.10;99.90;;;;;;5030378;28;20488;-90
2021/12/25 11:00:51;;;;;;;4.00;2.70;;;12.20;99.90;;;;;;5032379;28;20443;-88
2021/12/25 11:03:27;;;;;;;3.13;1.90;;;12.20;99.90;;;;;;5027949;28;20454;-90
2021/12/25 11:05:54;;;;;;;4.00;2.03;;;12.30;99.90;;;;;;5037531;28;20447;-87
2021/12/25 11:08:23;;;;;;;3.00;2.40;;;12.40;99.90;;;;;;5044037;28;20440;-88
2021/12/25 11:10:53;;;;;;;4.80;4.20;;;12.50;99.90;;;;;;5030706;28;20459;-87
2021/12/25 11:13:24;;;;;;;2.53;2.33;;;12.70;99.90;;;;;;5034726;28;20539;-88
2021/12/25 11:15:57;;;;;;;2.17;1.80;;;13.10;99.90;;;;;;5026025;28;20446;-86
2021/12/25 11:18:24;;;;;;;1.90;1.60;;;13.40;99.90;;;;;;5026302;28;20504;-87
2021/12/25 11:20:51;;;;;;;2.30;1.80;;;13.50;99.90;;;;;;5032823;28;20442;-88
2021/12/25 11:23:18;;;;;;;1.70;1.50;;;13.40;99.90;;;;;;5032342;28;20448;-88
2021/12/25 11:25:45;;;;;;;2.43;2.00;;;13.60;99.90;;;;;;5033950;28;20463;-88
2021/12/25 11:28:18;;;;;;;3.00;2.30;;;13.60;99.90;;;;;;5032785;28;20452;-87
2021/12/25 11:30:49;;;;;;;1.90;1.77;;;13.70;99.90;;;;;;5025005;28;20457;-86
2021/12/25 11:33:17;;;;;;;2.57;2.10;;;13.70;99.90;;;;;;5026528;28;20437;-87
2021/12/25 11:35:43;;;;;;;3.10;1.67;;;13.70;99.90;;;;;;5029594;28;20847;-88
2021/12/25 11:38:11;;;;;;;3.57;2.07;;;13.70;99.90;;;;;;5026148;28;20491;-87
2021/12/25 11:40:46;;;;;;;2.03;1.77;;;13.60;99.90;;;;;;5026333;28;20456;-87
2021/12/25 11:43:13;;;;;;;2.20;1.90;;;13.50;99.90;;;;;;5022463;28;20463;-87
2021/12/25 11:45:41;;;;;;;1.40;1.30;;;13.30;99.90;;;;;;5025474;28;20464;-87
2021/12/25 11:48:18;;;;;;;2.00;1.70;;;13.20;99.90;;;;;;5024042;28;20458;-86
2021/12/25 11:50:47;;;;;;;1.50;1.40;;;13.00;99.90;;;;;;5026900;28;20449;-88
2021/12/25 11:53:20;;;;;;;2.30;2.10;;;12.90;99.90;;;;;;5026976;28;20504;-88
2021/12/25 11:58:48;;;;;;;2.57;2.10;;;12.80;99.90;;;;;;5025304;28;20470;-87
2021/12/25 12:01:30;;;;;;;2.60;1.60;;;12.90;99.90;;;;;;5038951;28;20482;-87
2021/12/25 12:04:01;;;;;;;3.00;2.00;;;12.90;99.90;;;;;;5031989;28;20458;-87
2021/12/25 12:07:01;;;;;;;3.50;1.57;;;12.90;99.90;;;;;;5027074;28;20448;-87
2021/12/25 12:09:30;;;;;;;2.03;1.70;;;12.90;99.90;;;;;;5024880;28;20446;-87
2021/12/25 12:12:30;;;;;;;2.27;1.93;;;12.90;99.90;;;;;;5026040;28;20434;-87
2021/12/25 12:15:09;;;;;;;2.37;1.70;;;12.80;99.90;;;;;;4980731;28;20488;-87
2021/12/25 12:17:38;;;;;;;2.63;1.70;;;12.70;99.90;;;;;;5025327;28;20443;-88
2021/12/25 12:20:17;;;;;;;2.00;1.70;;;12.60;99.90;;;;;;5025937;28;20455;-89
2021/12/25 12:22:54;;;;;;;5.30;3.80;;;12.50;99.90;;;;;;5026513;28;20823;-87
2021/12/25 12:25:29;;;;;;;8.33;4.90;;;12.40;99.90;;;;;;5027912;28;20465;-87
2021/12/25 12:27:58;;;;;;;12.73;7.87;;;12.30;99.90;;;;;;5028526;28;20482;-87
2021/12/25 12:30:50;;;;;;;14.63;10.53;;;12.20;99.90;;;;;;5023177;28;20449;-87
2021/12/25 12:33:36;;;;;;;14.90;10.00;;;12.10;99.90;;;;;;5024238;28;20455;-87
2021/12/25 12:36:22;;;;;;;8.73;5.80;;;12.00;99.90;;;;;;5024263;28;20458;-86
2021/12/25 12:38:53;;;;;;;4.30;3.00;;;11.90;99.90;;;;;;5025132;28;20508;-87
2021/12/25 12:41:25;;;;;;;4.57;3.37;;;11.90;99.90;;;;;;5025754;28;20442;-87
2021/12/25 12:44:15;;;;;;;3.33;3.03;;;11.80;99.90;;;;;;5025503;28;20469;-88
2021/12/25 12:47:06;;;;;;;3.17;2.90;;;11.90;99.90;;;;;;5025158;28;20451;-88
2021/12/25 12:49:58;;;;;;;3.00;2.70;;;11.80;99.90;;;;;;5028328;28;20477;-88
2021/12/25 12:52:37;;;;;;;3.30;2.87;;;11.80;99.90;;;;;;5020041;28;20472;-87
2021/12/25 12:55:09;;;;;;;5.17;4.67;;;11.80;99.90;;;;;;5027840;28;20980;-86
2021/12/25 12:57:38;;;;;;;4.10;3.43;;;11.80;99.90;;;;;;5025603;28;20450;-86
2021/12/25 13:00:12;;;;;;;3.77;3.07;;;11.70;99.90;;;;;;5034832;28;20451;-85
2021/12/25 13:02:43;;;;;;;4.00;3.53;;;11.70;99.90;;;;;;5036850;28;20446;-87
2021/12/25 13:05:11;;;;;;;3.63;3.03;;;11.60;99.90;;;;;;5023214;28;20464;-87
2021/12/25 13:07:43;;;;;;;3.83;3.43;;;11.70;99.90;;;;;;5021647;28;20457;-88
2021/12/25 13:10:18;;;;;;;3.83;3.40;;;11.70;99.90;;;;;;5021364;28;20449;-87
2021/12/25 13:12:46;;;;;;;4.20;3.60;;;11.70;99.90;;;;;;5021576;28;20446;-86
2021/12/25 13:15:16;;;;;;;3.97;3.57;;;11.70;99.90;;;;;;5022564;28;20472;-87
2021/12/25 13:17:48;;;;;;;3.60;3.17;;;11.80;99.90;;;;;;5021827;28;20927;-87
2021/12/25 13:20:15;;;;;;;3.50;3.20;;;11.80;99.90;;;;;;5022867;28;20888;-87
2021/12/25 13:22:43;;;;;;;4.90;4.00;;;11.70;99.90;;;;;;5022295;28;20851;-88
2021/12/25 13:25:13;;;;;;;5.30;4.73;;;11.70;99.90;;;;;;5020726;28;20468;-87
2021/12/25 13:27:40;;;;;;;4.50;3.63;;;11.60;99.90;;;;;;5020792;28;20454;-87
2021/12/25 13:30:16;;;;;;;7.50;4.73;;;11.50;99.90;;;;;;5021265;28;20511;-88
2021/12/25 13:32:44;;;;;;;7.23;4.70;;;11.30;99.90;;;;;;5021432;28;20489;-87
2021/12/25 13:35:15;;;;;;;4.87;3.77;;;11.20;99.90;;;;;;5022757;28;20458;-87
2021/12/25 13:37:43;;;;;;;6.13;4.50;;;11.10;99.90;;;;;;5028090;28;20469;-87
2021/12/25 13:40:14;;;;;;;4.80;4.00;;;11.00;99.90;;;;;;5027899;28;20482;-88
2021/12/25 13:42:41;;;;;;;3.90;3.50;;;10.80;99.90;;;;;;5029575;28;20498;-87
2021/12/25 13:45:12;;;;;;;5.00;4.50;;;10.80;99.90;;;;;;5031693;28;20529;-89